Time;durP1;ratioP1;P1;durP2;ratioP2;P2;SDS_P1;SDS_P2;PMS_P1;PMS_P2;Temp;Humidity;BMP_temperature;BMP_pressure;BME280_temperature;BME280_humidity;BME280_pressure;Samples;Min_cycle;Max_cycle;Signal;HPM_P1;HPM_P2
2022/08/05 00:01:23;;;;;;;0.45;0.20;;;;;;;-145.06;100.00;60892.56;5958300;23;20009;-90
2022/08/05 00:04:08;;;;;;;0.88;0.28;;;;;;;-145.06;100.00;60892.56;5978492;23;19997;-91
2022/08/05 00:06:50;;;;;;;0.50;0.25;;;;;;;-145.06;100.00;60892.56;5978586;23;20009;-92
2022/08/05 00:09:33;;;;;;;0.30;0.30;;;;;;;-145.06;100.00;60892.56;5955873;23;20012;-88
2022/08/05 00:12:14;;;;;;;1.77;0.40;;;;;;;-145.06;100.00;60892.56;5977297;23;20507;-90
2022/08/05 00:14:54;;;;;;;0.75;0.40;;;;;;;-145.06;100.00;60892.56;5969973;23;20005;-91
2022/08/05 00:17:36;;;;;;;0.50;0.30;;;;;;;-145.06;100.00;60892.56;5970765;23;20092;-91
2022/08/05 00:20:15;;;;;;;0.40;0.30;;;;;;;-145.06;100.00;60892.56;5971553;23;20611;-89
2022/08/05 00:23:06;;;;;;;0.20;0.20;;;;;;;-145.06;100.00;60892.56;5970179;23;20005;-91
2022/08/05 00:25:52;;;;;;;0.40;0.30;;;;;;;31.47;100.00;60892.56;5948800;23;20037;-91
2022/08/05 00:28:34;;;;;;;0.60;0.30;;;;;;;-145.06;100.00;60892.56;5948877;23;20368;-89
2022/08/05 00:31:20;;;;;;;0.43;0.30;;;;;;;-145.06;100.00;60892.56;5948925;23;20084;-91
2022/08/05 00:34:07;;;;;;;0.60;0.30;;;;;;;-145.06;100.00;60892.56;5969317;23;20446;-91
2022/08/05 00:36:51;;;;;;;1.45;0.20;;;;;;;-145.06;100.00;60892.56;5949023;23;20005;-89
2022/08/05 00:39:36;;;;;;;0.52;0.20;;;;;;;-145.06;100.00;60892.56;5970013;23;20008;-92
2022/08/05 00:42:27;;;;;;;0.40;0.30;;;;;;;-145.06;100.00;60892.56;5969822;23;20001;-90
2022/08/05 00:45:14;;;;;;;0.40;0.40;;;;;;;-145.06;100.00;60892.56;5969269;23;20001;-90
2022/08/05 00:47:59;;;;;;;0.30;0.20;;;;;;;-145.06;100.00;60892.56;5970141;23;20639;-89
2022/08/05 00:50:51;;;;;;;0.40;0.28;;;;;;;-145.06;100.00;60892.56;5948978;23;20088;-90
2022/08/05 00:53:45;;;;;;;0.55;0.25;;;;;;;-145.06;100.00;60892.56;5969902;23;20005;-89
2022/08/05 00:56:29;;;;;;;0.90;0.40;;;;;;;-145.06;100.00;60892.56;5919762;23;20010;-89
2022/08/05 00:59:23;;;;;;;0.30;0.30;;;;;;;-145.06;100.00;60892.56;5948768;23;20005;-90
2022/08/05 01:02:17;;;;;;;0.68;0.35;;;;;;;-145.06;100.00;60892.56;5969588;23;20085;-89
2022/08/05 01:05:02;;;;;;;0.75;0.30;;;;;;;-145.06;100.00;60892.56;5948701;23;20381;-89
2022/08/05 01:11:34;;;;;;;0.40;0.30;;;;;;;-145.06;100.00;60892.56;5980324;23;20005;-91
2022/08/05 01:18:13;;;;;;;0.45;0.30;;;;;;;-145.06;100.00;60892.56;5980776;23;20009;-90
2022/08/05 01:21:32;;;;;;;0.25;0.20;;;;;;;-145.06;100.00;60892.56;5969664;23;20076;-90
2022/08/05 01:28:07;;;;;;;2.90;0.50;;;;;;;-145.06;100.00;60892.56;5980799;23;20001;-89
2022/08/05 01:31:32;;;;;;;1.85;0.55;;;;;;;22.00;100.00;60892.56;5970072;23;20005;-89
2022/08/05 01:34:56;;;;;;;0.98;0.40;;;;;;;-145.06;100.00;60892.56;5967132;23;20439;-89
2022/08/05 01:37:49;;;;;;;0.77;0.40;;;;;;;-145.06;100.00;60892.56;5969941;23;20423;-90
2022/08/05 01:40:48;;;;;;;0.80;0.40;;;;;;;104.26;100.00;60892.56;5948833;23;20310;-89
2022/08/05 01:47:00;;;;;;;;;;;;;;;;;;;;;
2022/08/05 01:50:09;;;;;;;0.93;0.50;;;;;;;-145.06;100.00;60892.56;5981770;23;20604;-91
2022/08/05 01:59:35;;;;;;;0.43;0.30;;;;;;;-145.06;100.00;60892.56;5924645;23;20002;-91
2022/08/05 02:07:03;;;;;;;;;;;;;;;;;;;;;
2022/08/05 04:39:15;;;;;;;0.90;0.80;;;;;;;-145.06;100.00;60892.56;5970146;23;20096;-89
2022/08/05 04:42:00;;;;;;;2.15;1.20;;;;;;;-145.06;100.00;60892.56;5981233;23;20008;-89
2022/08/05 04:44:47;;;;;;;0.85;0.63;;;;;;;-145.06;100.00;60892.56;5972736;23;20408;-90
2022/08/05 07:40:26;;;;;;;2.10;1.83;;;;;;;-145.06;100.00;60892.56;5997538;22;20102;-90
2022/08/05 07:43:05;;;;;;;2.40;1.73;;;;;;;-145.06;100.00;60892.56;5978760;23;20013;-90
2022/08/05 07:46:12;;;;;;;;;;;;;;;;;;;;;
2022/08/05 07:53:29;;;;;;;;;;;;;;;;;;;;;
2022/08/05 07:56:43;;;;;;;1.90;1.40;;;;;;;-145.06;100.00;60892.56;5894620;23;20010;-91
2022/08/05 08:00:05;;;;;;;1.92;1.50;;;;;;;-145.06;100.00;60892.56;5942939;23;20005;-92
2022/08/05 08:03:23;;;;;;;2.03;1.40;;;;;;;-145.06;100.00;60892.56;5951377;23;20001;-90
2022/08/05 08:10:17;;;;;;;1.42;1.10;;;;;;;-145.06;100.00;60892.56;5904319;23;20503;-89
2022/08/05 08:20:37;;;;;;;1.80;0.90;;;;;;;-145.06;100.00;60892.56;6013045;23;20012;-89
2022/08/05 14:50:29;;;;;;;0.55;0.20;;;;;;;-145.06;100.00;60892.56;6001749;22;20004;-90
2022/08/05 15:04:56;;;;;;;;;;;;;;;;;;;;;
2022/08/05 15:11:58;;;;;;;0.20;0.20;;;;;;;-145.06;100.00;60892.56;5991299;23;20005;-91
2022/08/05 15:22:15;;;;;;;0.30;0.20;;;;;;;-145.06;100.00;60892.56;5969741;23;20020;-91
2022/08/05 15:25:39;;;;;;;0.45;0.20;;;;;;;-145.06;100.00;60892.56;5978209;23;20001;-92
2022/08/05 15:28:22;;;;;;;0.98;0.30;;;;;;;-145.06;100.00;60892.56;5978350;23;20005;-91
2022/08/05 15:31:23;;;;;;;0.40;0.20;;;;;;;-145.06;100.00;60892.56;5988271;23;20001;-91
2022/08/05 15:41:27;;;;;;;0.43;0.10;;;;;;;-145.06;100.00;60892.56;5874217;23;20011;-92
2022/08/05 15:45:30;;;;;;;;;;;;;;;;;;;;;
2022/08/05 15:48:49;;;;;;;;;;;;;;;;;;;;;
2022/08/05 15:51:55;;;;;;;0.20;0.20;;;;;;;-145.06;100.00;60892.56;5936952;23;20431;-91
2022/08/05 15:55:14;;;;;;;;;;;;;;;;;;;;;
2022/08/05 15:58:17;;;;;;;;;;;;;;;;;;;;;
2022/08/05 16:09:01;;;;;;;;;;;;;;;;;;;;;
2022/08/05 16:16:14;;;;;;;0.40;0.20;;;;;;;-145.06;100.00;60892.56;5958950;23;20033;-92
2022/08/05 16:23:35;;;;;;;0.43;0.22;;;;;;;-145.06;100.00;60892.56;5936390;23;20013;-91
2022/08/05 16:26:52;;;;;;;0.20;0.20;;;;;;;-145.06;100.00;60892.56;5947530;23;20010;-91
2022/08/05 16:30:11;;;;;;;0.47;0.20;;;;;;;-145.06;100.00;60892.56;5923884;23;20006;-92
2022/08/05 16:33:46;;;;;;;;;;;;;;;;;;;;;
2022/08/05 16:48:08;;;;;;;0.47;0.20;;;;;;;23.27;100.00;60892.56;5874125;23;20003;-90
2022/08/05 17:00:54;;;;;;;0.73;0.28;;;;;;;-145.06;100.00;60892.56;6002341;23;20012;-91
2022/08/05 17:15:49;;;;;;;0.10;0.10;;;;;;;-145.06;100.00;60892.56;5990368;23;20005;-90
2022/08/05 17:22:45;;;;;;;0.10;0.10;;;;;;;-145.06;100.00;60892.56;5933549;23;20010;-91
2022/08/05 17:59:38;;;;;;;0.10;0.10;;;;;;;-145.06;100.00;60892.56;5946897;23;20009;-91
2022/08/05 18:03:18;;;;;;;0.10;0.10;;;;;;;-145.06;100.00;60892.56;5967062;23;20300;-92
2022/08/05 18:07:14;;;;;;;;;;;;;;;;;;;;;
2022/08/05 18:10:45;;;;;;;0.20;0.10;;;;;;;-145.06;100.00;60892.56;5788856;23;20007;-91
2022/08/05 18:13:24;;;;;;;0.10;0.10;;;;;;;-145.06;100.00;60892.56;5816185;23;20086;-91
2022/08/05 18:16:04;;;;;;;;;;;;;;;-145.06;100.00;60892.56;5811244;23;20019;-91
2022/08/05 18:30:24;;;;;;;0.20;0.20;;;;;;;-145.06;100.00;60892.56;5934245;23;20006;-91
2022/08/05 18:33:04;;;;;;;0.10;0.10;;;;;;;-145.06;100.00;60892.56;5888052;23;20033;-90
2022/08/05 18:35:46;;;;;;;0.63;0.10;;;;;;;-145.06;100.00;60892.56;5887336;23;20006;-91
2022/08/05 18:38:25;;;;;;;0.45;0.10;;;;;;;-145.06;100.00;60892.56;5967395;23;20005;-90
2022/08/05 18:41:06;;;;;;;0.00;0.00;;;;;;;-145.06;100.00;60892.56;5985018;23;20004;-92
2022/08/05 18:43:50;;;;;;;0.00;0.00;;;;;;;-145.06;100.00;60892.56;5985555;23;20000;-92
2022/08/05 18:46:30;;;;;;;0.10;0.10;;;;;;;-145.06;100.00;60892.56;5986203;23;20076;-90
2022/08/05 18:52:34;;;;;;;0.20;0.10;;;;;;;-145.06;100.00;60892.56;5994682;23;20008;-90
2022/08/05 18:55:26;;;;;;;;;;;;;;;;;;;;;
2022/08/05 18:58:08;;;;;;;0.10;0.10;;;;;;;-145.06;100.00;60892.56;6018449;23;20008;-91
2022/08/05 19:00:47;;;;;;;0.10;0.10;;;;;;;-145.06;100.00;60892.56;5986591;23;20171;-92
2022/08/05 19:03:53;;;;;;;0.28;0.10;;;;;;;-145.06;100.00;60892.56;5986021;23;20013;-90
2022/08/05 19:06:42;;;;;;;0.40;0.10;;;;;;;-145.06;100.00;60892.56;5986415;23;20005;-92
2022/08/05 19:09:32;;;;;;;0.65;0.30;;;;;;;-145.06;100.00;60892.56;5986487;23;20001;-90
2022/08/05 19:12:25;;;;;;;0.10;0.10;;;;;;;-145.06;100.00;60892.56;5985486;23;20004;-90
2022/08/05 19:15:08;;;;;;;0.08;0.08;;;;;;;-145.06;100.00;60892.56;5985557;23;20004;-91
2022/08/05 19:17:51;;;;;;;0.10;0.10;;;;;;;-145.06;100.00;60892.56;5985834;23;20009;-90
2022/08/05 19:20:54;;;;;;;0.10;0.10;;;;;;;-145.06;100.00;60892.56;5986447;23;20060;-91
2022/08/05 19:23:48;;;;;;;0.13;0.05;;;;;;;-145.06;100.00;60892.56;5987451;23;20001;-91
2022/08/05 19:30:46;;;;;;;;;;;;;;;;;;;;;
2022/08/05 19:34:09;;;;;;;;;;;;;;;;;;;;;
2022/08/05 19:37:09;;;;;;;1.52;0.25;;;;;;;-145.06;100.00;60892.56;6017951;23;20095;-91
2022/08/05 19:40:42;;;;;;;;;;;;;;;;;;;;;
2022/08/05 19:43:55;;;;;;;0.73;0.10;;;;;;;-145.06;100.00;60892.56;6006615;23;20327;-91
2022/08/05 19:47:28;;;;;;;0.20;0.10;;;;;;;21.00;100.00;60892.56;5988240;23;20008;-90
2022/08/05 19:50:21;;;;;;;0.10;0.10;;;;;;;20.93;100.00;60892.56;5986999;23;20009;-92
2022/08/05 19:53:54;;;;;;;0.45;0.30;;;;;;;20.86;100.00;60892.56;5987341;23;20004;-91
2022/08/05 19:56:47;;;;;;;0.00;0.00;;;;;;;20.81;100.00;60892.56;5975531;23;20309;-90
2022/08/05 19:59:38;;;;;;;0.10;0.10;;;;;;;20.77;100.00;60892.56;5986685;23;20017;-90
2022/08/05 20:02:48;;;;;;;0.20;0.10;;;;;;;-145.06;100.00;60892.56;5986849;23;20088;-90
2022/08/05 20:06:21;;;;;;;0.00;0.00;;;;;;;-145.06;100.00;60892.56;6009160;23;20005;-91
2022/08/05 20:09:27;;;;;;;0.10;0.10;;;;;;;-145.06;100.00;60892.56;6008657;23;20008;-90
2022/08/05 20:12:20;;;;;;;;;;;;;;;;;;;;;
2022/08/05 20:15:15;;;;;;;0.10;0.10;;;;;;;-145.06;100.00;60892.56;6018479;23;19997;-91
2022/08/05 20:21:52;;;;;;;0.63;0.15;;;;;;;-145.06;100.00;60892.56;6015125;23;20219;-90
2022/08/05 20:24:52;;;;;;;0.20;0.10;;;;;;;-145.06;100.00;60892.56;5985498;23;20498;-89
2022/08/05 20:28:00;;;;;;;0.10;0.10;;;;;;;-145.06;100.00;60892.56;5985423;23;20004;-91
2022/08/05 20:34:14;;;;;;;0.10;0.10;;;;;;;-145.06;100.00;60892.56;5976920;23;20472;-91
2022/08/05 20:37:25;;;;;;;0.43;0.10;;;;;;;-145.06;100.00;60892.56;5987055;23;20012;-90
2022/08/05 20:40:34;;;;;;;0.60;0.20;;;;;;;-145.06;100.00;60892.56;5986453;23;20005;-90
2022/08/05 20:44:01;;;;;;;0.10;0.10;;;;;;;-145.06;100.00;60892.56;6010352;23;20004;-90
2022/08/05 20:46:40;;;;;;;0.20;0.10;;;;;;;187.52;100.00;60892.56;5941177;23;20008;-90
2022/08/05 20:50:07;;;;;;;;;;;;;;;;;;;;;
